createdAt,value
2022-09-16T00:02:56.149Z,12.40
2022-09-16T00:05:57.942Z,11.10
2022-09-16T00:09:03.505Z,11.30
2022-09-16T00:12:06.461Z,11.90
2022-09-16T00:15:08.695Z,11.60
2022-09-16T00:18:11.585Z,11.60
2022-09-16T00:21:13.304Z,11.50
2022-09-16T00:24:16.374Z,11.60
2022-09-16T00:27:18.011Z,11.50
2022-09-16T00:30:19.633Z,12.00
2022-09-16T00:33:21.362Z,11.50
2022-09-16T00:36:23.154Z,11.50
2022-09-16T00:39:24.832Z,11.80
2022-09-16T00:42:26.518Z,11.50
2022-09-16T00:45:31.547Z,11.50
2022-09-16T00:48:34.269Z,11.70
2022-09-16T00:51:37.143Z,11.50
2022-09-16T00:54:40.163Z,11.70
2022-09-16T00:57:42.577Z,11.10
2022-09-16T01:00:44.633Z,11.70
2022-09-16T01:03:54.116Z,11.50
2022-09-16T01:06:56.440Z,11.50
2022-09-16T01:09:58.342Z,12.00
2022-09-16T01:13:06.462Z,12.20
2022-09-16T01:16:10.844Z,12.20
2022-09-16T01:19:35.768Z,11.60
2022-09-16T01:23:07.208Z,11.60
2022-09-16T01:26:37.558Z,11.60
2022-09-16T01:30:00.281Z,11.60
2022-09-16T01:33:36.014Z,11.60
2022-09-16T01:36:47.430Z,11.60
2022-09-16T01:40:16.689Z,11.50
2022-09-16T01:43:22.061Z,11.50
2022-09-16T01:46:32.744Z,11.50
2022-09-16T01:50:04.045Z,11.50
2022-09-16T01:53:10.496Z,11.50
2022-09-16T01:56:37.609Z,11.40
2022-09-16T01:59:54.246Z,11.40
2022-09-16T02:03:13.293Z,11.50
2022-09-16T02:06:23.135Z,11.50
2022-09-16T02:09:37.304Z,11.50
2022-09-16T02:12:43.519Z,11.40
2022-09-16T02:15:49.729Z,11.50
2022-09-16T02:18:55.719Z,11.40
2022-09-16T02:21:59.044Z,11.40
2022-09-16T02:25:02.215Z,11.20
2022-09-16T02:28:08.076Z,11.60
2022-09-16T02:31:13.406Z,11.40
2022-09-16T02:34:19.732Z,11.40
2022-09-16T02:37:49.226Z,11.30
2022-09-16T02:40:55.580Z,11.30
2022-09-16T02:43:57.370Z,11.40
2022-09-16T02:47:15.902Z,11.40
2022-09-16T02:50:29.744Z,11.50
2022-09-16T02:53:35.448Z,11.40
2022-09-16T02:56:40.331Z,11.50
2022-09-16T02:59:42.219Z,10.80
2022-09-16T03:02:44.596Z,12.00
2022-09-16T03:06:25.254Z,12.00
2022-09-16T03:09:29.778Z,11.40
2022-09-16T03:12:37.158Z,11.40
2022-09-16T03:15:50.738Z,11.40
2022-09-16T03:19:08.404Z,11.30
2022-09-16T03:22:21.452Z,11.30
2022-09-16T03:25:23.036Z,11.40
2022-09-16T03:28:27.404Z,11.30
2022-09-16T03:31:48.181Z,11.70
2022-09-16T03:34:53.329Z,11.40
2022-09-16T03:37:57.213Z,11.00
2022-09-16T03:40:59.270Z,11.30
2022-09-16T03:44:04.051Z,11.30
2022-09-16T03:47:07.576Z,11.40
2022-09-16T03:50:09.553Z,11.40
2022-09-16T03:53:11.209Z,11.40
2022-09-16T03:56:12.832Z,11.30
2022-09-16T03:59:14.617Z,11.40
2022-09-16T04:02:16.267Z,11.30
2022-09-16T04:05:17.978Z,11.50
2022-09-16T04:08:19.681Z,11.40
2022-09-16T04:11:21.317Z,11.20
2022-09-16T04:14:22.977Z,11.40
2022-09-16T04:17:24.821Z,12.00
2022-09-16T04:20:26.798Z,11.40
2022-09-16T04:23:30.945Z,11.40
2022-09-16T04:26:35.412Z,11.30
2022-09-16T04:29:37.183Z,11.40
2022-09-16T04:32:38.819Z,11.40
2022-09-16T04:35:40.449Z,11.40
2022-09-16T04:38:43.871Z,11.60
2022-09-16T04:41:48.295Z,11.70
2022-09-16T04:44:49.938Z,11.30
2022-09-16T04:47:58.491Z,11.30
2022-09-16T04:51:10.322Z,11.70
2022-09-16T04:54:12.335Z,11.30
2022-09-16T04:57:13.966Z,10.80
2022-09-16T05:00:15.977Z,11.60
2022-09-16T05:03:17.641Z,11.30
2022-09-16T05:06:24.675Z,11.10
2022-09-16T05:09:26.328Z,11.30
2022-09-16T05:12:27.970Z,11.30
2022-09-16T05:15:29.872Z,11.30
2022-09-16T05:18:47.341Z,11.50
2022-09-16T05:21:48.966Z,11.30
2022-09-16T05:24:50.640Z,11.30
2022-09-16T05:27:52.242Z,11.20
2022-09-16T05:31:24.188Z,10.80
2022-09-16T05:34:59.007Z,11.10
2022-09-16T05:38:00.790Z,11.00
2022-09-16T05:41:03.831Z,10.90
2022-09-16T05:44:08.816Z,11.00
2022-09-16T05:47:10.397Z,10.90
2022-09-16T05:50:11.997Z,10.90
2022-09-16T05:53:13.570Z,10.90
2022-09-16T05:56:25.669Z,10.90
2022-09-16T05:59:27.300Z,10.90
2022-09-16T06:02:28.989Z,10.90
2022-09-16T06:05:32.958Z,10.90
2022-09-16T06:08:36.066Z,10.90
2022-09-16T06:11:49.689Z,10.90
2022-09-16T06:14:56.151Z,11.00
2022-09-16T06:18:00.034Z,11.00
2022-09-16T06:21:07.992Z,11.70
2022-09-16T06:24:31.746Z,11.10
2022-09-16T06:27:33.357Z,11.20
2022-09-16T06:30:35.313Z,11.30
2022-09-16T06:33:37.445Z,11.40
2022-09-16T06:36:42.742Z,11.40
2022-09-16T06:39:46.635Z,11.40
2022-09-16T06:42:48.367Z,11.40
2022-09-16T06:45:50.007Z,11.40
2022-09-16T06:48:54.042Z,11.30
2022-09-16T06:51:55.736Z,11.30
2022-09-16T06:54:58.048Z,11.30
2022-09-16T06:57:59.722Z,11.30
2022-09-16T07:01:08.712Z,11.30
2022-09-16T07:04:13.081Z,11.40
2022-09-16T07:07:29.308Z,11.40
2022-09-16T07:10:30.912Z,11.40
2022-09-16T07:13:43.539Z,11.50
2022-09-16T07:16:48.291Z,11.50
2022-09-16T07:19:49.972Z,11.60
2022-09-16T07:22:53.916Z,11.80
2022-09-16T07:26:21.878Z,11.90
2022-09-16T07:29:23.645Z,12.00
2022-09-16T07:32:25.215Z,12.20
2022-09-16T07:35:27.089Z,12.40
2022-09-16T07:38:30.090Z,12.70
2022-09-16T07:41:39.036Z,13.00
2022-09-16T07:44:40.709Z,13.20
2022-09-16T07:47:42.342Z,13.20
2022-09-16T07:50:58.104Z,13.10
2022-09-16T07:54:03.573Z,13.00
2022-09-16T07:57:05.258Z,12.90
2022-09-16T08:00:07.681Z,13.00
2022-09-16T08:03:10.056Z,13.00
2022-09-16T08:06:14.647Z,12.90
2022-09-16T08:12:40.119Z,12.80
2022-09-16T08:15:41.708Z,12.70
2022-09-16T08:18:44.088Z,12.70
2022-09-16T08:21:45.919Z,12.80
2022-09-16T08:24:47.504Z,12.90
2022-09-16T08:27:52.795Z,13.10
2022-09-16T08:31:01.581Z,13.20
2022-09-16T08:34:03.306Z,13.20
2022-09-16T08:37:05.000Z,13.20
2022-09-16T08:40:07.173Z,13.20
2022-09-16T08:43:27.231Z,13.50
2022-09-16T08:46:42.430Z,13.70
2022-09-16T08:49:46.916Z,13.80
2022-09-16T08:52:49.784Z,13.80
2022-09-16T08:55:51.985Z,13.60
2022-09-16T08:58:57.612Z,13.50
2022-09-16T09:02:24.723Z,13.40
2022-09-16T09:05:29.611Z,13.40
2022-09-16T09:08:47.425Z,13.40
2022-09-16T09:11:57.970Z,13.40
2022-09-16T09:15:40.489Z,13.40
2022-09-16T09:19:10.582Z,13.60
2022-09-16T09:22:27.544Z,13.60
2022-09-16T09:25:58.812Z,13.70
2022-09-16T09:29:13.586Z,13.60
2022-09-16T09:32:48.956Z,13.60
2022-09-16T09:36:34.670Z,13.80
2022-09-16T09:39:41.135Z,13.90
2022-09-16T09:42:59.864Z,14.10
2022-09-16T09:46:29.035Z,14.20
2022-09-16T09:49:54.304Z,14.30
2022-09-16T09:53:10.937Z,14.30
2022-09-16T09:56:21.869Z,14.40
2022-09-16T09:59:49.223Z,14.70
2022-09-16T10:02:51.610Z,14.70
2022-09-16T10:05:53.203Z,14.60
2022-09-16T10:08:57.886Z,14.50
2022-09-16T10:12:03.031Z,14.40
2022-09-16T10:15:05.205Z,14.40
2022-09-16T10:18:14.604Z,14.30
2022-09-16T10:21:17.724Z,14.40
2022-09-16T10:24:33.028Z,14.50
2022-09-16T10:27:37.344Z,14.50
2022-09-16T10:30:52.044Z,14.40
2022-09-16T10:33:53.944Z,14.40
2022-09-16T10:37:33.765Z,14.40
2022-09-16T10:41:15.658Z,14.60
2022-09-16T10:44:23.650Z,14.70
2022-09-16T10:47:31.381Z,14.70
2022-09-16T10:50:33.151Z,14.40
2022-09-16T10:54:08.449Z,14.50
2022-09-16T10:57:31.291Z,14.80
2022-09-16T11:00:45.416Z,15.00
2022-09-16T11:04:13.117Z,15.20
2022-09-16T11:07:52.480Z,15.50
2022-09-16T11:15:11.058Z,15.40
2022-09-16T11:22:43.458Z,15.00
2022-09-16T11:25:56.531Z,14.90
2022-09-16T11:29:09.502Z,15.00
2022-09-16T11:32:20.107Z,15.10
2022-09-16T11:35:59.403Z,15.20
2022-09-16T11:39:31.760Z,15.40
2022-09-16T11:42:51.501Z,15.40
2022-09-16T11:46:04.411Z,15.50
2022-09-16T11:49:39.885Z,15.50
2022-09-16T11:52:44.413Z,15.50
2022-09-16T11:56:00.951Z,15.40
2022-09-16T11:59:24.658Z,15.40
2022-09-16T12:02:29.447Z,15.20
2022-09-16T12:05:35.298Z,14.90
2022-09-16T12:08:55.532Z,14.60
2022-09-16T12:12:24.138Z,14.30
2022-09-16T12:18:51.401Z,14.30
2022-09-16T12:22:01.491Z,14.30
2022-09-16T12:25:09.089Z,14.30
2022-09-16T12:28:38.732Z,14.50
2022-09-16T12:32:05.148Z,14.60
2022-09-16T12:35:17.320Z,14.80
2022-09-16T12:38:20.895Z,14.90
2022-09-16T12:41:45.301Z,14.90
2022-09-16T12:44:57.781Z,14.90
2022-09-16T12:48:17.638Z,15.00
2022-09-16T12:51:44.982Z,15.00
2022-09-16T12:55:23.093Z,15.10
2022-09-16T12:58:43.360Z,15.20
2022-09-16T13:01:48.379Z,15.30
2022-09-16T13:04:58.034Z,15.50
2022-09-16T13:08:07.756Z,15.40
2022-09-16T13:12:07.189Z,15.40
2022-09-16T13:14:49.273Z,15.50
2022-09-16T13:17:53.153Z,15.50
2022-09-16T13:21:00.016Z,15.60
2022-09-16T13:24:12.612Z,15.70
2022-09-16T13:27:48.153Z,15.80
2022-09-16T13:30:49.811Z,15.70
2022-09-16T13:33:57.555Z,15.70
2022-09-16T13:36:59.266Z,15.60
2022-09-16T13:40:31.289Z,15.60
2022-09-16T13:43:58.190Z,15.50
2022-09-16T13:47:12.086Z,15.50
2022-09-16T13:50:16.119Z,15.40
2022-09-16T13:53:26.848Z,15.40
2022-09-16T13:56:37.488Z,15.40
2022-09-16T14:00:02.426Z,15.40
2022-09-16T14:03:47.552Z,15.40
2022-09-16T14:07:02.653Z,15.50
2022-09-16T14:10:24.478Z,15.60
2022-09-16T14:13:35.948Z,15.60
2022-09-16T14:16:41.880Z,15.60
2022-09-16T14:19:46.778Z,15.50
2022-09-16T14:22:48.730Z,15.40
2022-09-16T14:25:53.475Z,15.30
2022-09-16T14:29:04.766Z,15.20
2022-09-16T14:32:13.500Z,15.00
2022-09-16T14:35:22.736Z,14.70
2022-09-16T14:39:07.086Z,14.50
2022-09-16T14:42:05.228Z,14.30
2022-09-16T14:45:08.277Z,14.20
2022-09-16T14:48:11.900Z,14.20
2022-09-16T14:51:22.096Z,14.20
2022-09-16T14:54:26.137Z,14.10
2022-09-16T14:57:30.136Z,14.00
2022-09-16T15:00:47.120Z,13.90
2022-09-16T15:04:08.823Z,13.90
2022-09-16T15:07:18.208Z,13.90
2022-09-16T15:10:30.266Z,13.90
2022-09-16T15:13:42.872Z,13.90
2022-09-16T15:16:49.512Z,13.90
2022-09-16T15:20:01.309Z,13.90
2022-09-16T15:23:09.667Z,13.90
2022-09-16T15:26:18.890Z,13.90
2022-09-16T15:29:20.897Z,13.90
2022-09-16T15:32:28.275Z,14.00
2022-09-16T15:35:35.466Z,14.30
2022-09-16T15:38:39.938Z,14.00
2022-09-16T15:41:45.597Z,13.80
2022-09-16T15:44:56.917Z,13.80
2022-09-16T15:48:04.753Z,13.70
2022-09-16T15:51:31.515Z,13.70
2022-09-16T15:54:37.531Z,13.70
2022-09-16T15:57:44.702Z,13.70
2022-09-16T16:01:13.549Z,13.80
2022-09-16T16:04:25.388Z,13.70
2022-09-16T16:08:00.700Z,13.70
2022-09-16T16:11:08.933Z,13.70
2022-09-16T16:14:10.520Z,13.70
2022-09-16T16:17:21.469Z,13.70
2022-09-16T16:20:23.967Z,13.60
2022-09-16T16:23:25.548Z,13.60
2022-09-16T16:26:27.156Z,13.60
2022-09-16T16:29:28.801Z,13.60
2022-09-16T16:32:31.660Z,13.60
2022-09-16T16:35:33.314Z,13.60
2022-09-16T16:38:45.424Z,13.60
2022-09-16T16:41:47.005Z,13.50
2022-09-16T16:44:49.151Z,13.50
2022-09-16T16:47:50.922Z,13.50
2022-09-16T16:51:00.696Z,13.50
2022-09-16T16:54:02.356Z,13.50
2022-09-16T16:57:04.468Z,13.50
2022-09-16T17:00:07.363Z,13.40
2022-09-16T17:03:08.971Z,13.40
2022-09-16T17:06:11.132Z,13.40
2022-09-16T17:09:15.871Z,13.30
2022-09-16T17:12:18.082Z,13.30
2022-09-16T17:15:19.748Z,13.20
2022-09-16T17:18:21.348Z,13.00
2022-09-16T17:21:26.663Z,12.90
2022-09-16T17:24:28.352Z,12.80
2022-09-16T17:27:30.089Z,12.80
2022-09-16T17:30:31.976Z,12.70
2022-09-16T17:33:33.682Z,12.70
2022-09-16T17:36:37.946Z,12.60
2022-09-16T17:39:40.284Z,12.70
2022-09-16T17:42:41.901Z,12.60
2022-09-16T17:45:51.419Z,12.60
2022-09-16T17:48:58.567Z,12.60
2022-09-16T17:52:02.363Z,12.50
2022-09-16T17:55:15.200Z,12.40
2022-09-16T17:58:16.910Z,12.40
2022-09-16T18:01:21.542Z,12.30
2022-09-16T18:04:23.185Z,12.40
2022-09-16T18:07:24.838Z,12.20
2022-09-16T18:10:26.605Z,12.00
2022-09-16T18:13:28.618Z,11.90
2022-09-16T18:16:30.791Z,11.90
2022-09-16T18:19:35.572Z,11.90
2022-09-16T18:22:37.545Z,11.90
2022-09-16T18:25:39.131Z,11.80
2022-09-16T18:29:07.878Z,11.80
2022-09-16T18:32:04.776Z,11.80
2022-09-16T18:35:06.887Z,11.70
2022-09-16T18:38:12.792Z,11.70
2022-09-16T18:41:17.795Z,11.70
2022-09-16T18:44:23.655Z,11.70
2022-09-16T18:47:25.325Z,11.60
2022-09-16T18:50:26.901Z,11.60
2022-09-16T18:53:28.552Z,11.60
2022-09-16T18:56:32.338Z,11.60
2022-09-16T18:59:36.946Z,11.60
2022-09-16T19:02:38.606Z,11.70
2022-09-16T19:05:40.319Z,11.70
2022-09-16T19:08:42.097Z,11.70
2022-09-16T19:11:44.061Z,11.70
2022-09-16T19:14:45.858Z,11.70
2022-09-16T19:17:47.873Z,11.80
2022-09-16T19:20:53.146Z,11.90
2022-09-16T19:23:58.713Z,11.80
2022-09-16T19:27:00.513Z,11.90
2022-09-16T19:30:02.131Z,11.90
2022-09-16T19:33:04.010Z,11.90
2022-09-16T19:36:20.644Z,11.80
2022-09-16T19:39:22.297Z,11.90
2022-09-16T19:42:24.012Z,11.80
2022-09-16T19:46:08.329Z,11.80
2022-09-16T19:49:57.922Z,11.80
2022-09-16T19:52:59.552Z,11.70
2022-09-16T19:56:24.938Z,11.70
2022-09-16T19:59:26.560Z,11.70
2022-09-16T20:02:28.449Z,11.70
2022-09-16T20:05:30.876Z,11.70
2022-09-16T20:08:33.485Z,11.80
2022-09-16T20:11:36.987Z,11.70
2022-09-16T20:14:38.763Z,11.70
2022-09-16T20:17:40.650Z,11.70
2022-09-16T20:20:45.365Z,11.70
2022-09-16T20:23:49.297Z,11.80
2022-09-16T20:26:53.257Z,11.50
2022-09-16T20:29:54.849Z,11.60
2022-09-16T20:32:56.493Z,11.50
2022-09-16T20:36:13.856Z,11.40
2022-09-16T20:39:15.764Z,11.20
2022-09-16T20:42:20.070Z,11.10
2022-09-16T20:45:21.661Z,11.10
2022-09-16T20:48:23.277Z,11.00
2022-09-16T20:51:27.759Z,11.00
2022-09-16T20:54:29.333Z,11.10
2022-09-16T20:57:30.953Z,11.10
2022-09-16T21:00:34.744Z,11.10
2022-09-16T21:03:36.598Z,11.10
2022-09-16T21:06:38.306Z,11.20
2022-09-16T21:09:39.880Z,11.20
2022-09-16T21:12:41.476Z,11.20
2022-09-16T21:15:43.181Z,11.20
2022-09-16T21:18:44.793Z,11.20
2022-09-16T21:21:48.412Z,11.20
2022-09-16T21:24:50.141Z,11.30
2022-09-16T21:27:51.737Z,11.30
2022-09-16T21:31:05.010Z,11.20
2022-09-16T21:34:10.662Z,11.20
2022-09-16T21:37:12.269Z,11.00
2022-09-16T21:40:14.150Z,11.10
2022-09-16T21:43:15.842Z,11.10
2022-09-16T21:46:20.080Z,11.20
2022-09-16T21:49:25.627Z,11.00
2022-09-16T21:52:27.317Z,11.00
2022-09-16T21:55:30.346Z,10.90
2022-09-16T21:58:32.793Z,10.90
2022-09-16T22:01:35.086Z,10.90
2022-09-16T22:04:36.724Z,11.00
2022-09-16T22:07:38.325Z,10.90
2022-09-16T22:10:39.960Z,11.00
2022-09-16T22:13:41.897Z,10.90
2022-09-16T22:16:45.790Z,10.90
2022-09-16T22:19:47.874Z,10.90
2022-09-16T22:22:49.912Z,10.90
2022-09-16T22:25:51.529Z,10.90
2022-09-16T22:28:53.255Z,10.90
2022-09-16T22:31:54.864Z,10.90
2022-09-16T22:34:56.539Z,10.90
2022-09-16T22:38:31.434Z,10.90
2022-09-16T22:41:33.930Z,10.80
2022-09-16T22:44:35.531Z,10.80
2022-09-16T22:47:37.673Z,10.70
2022-09-16T22:50:39.260Z,10.70
2022-09-16T22:53:42.327Z,10.60
2022-09-16T22:56:44.353Z,10.60
2022-09-16T22:59:45.928Z,10.50
2022-09-16T23:02:50.360Z,10.50
2022-09-16T23:05:56.475Z,10.50
2022-09-16T23:08:59.587Z,10.50
2022-09-16T23:12:01.364Z,10.50
2022-09-16T23:15:03.192Z,10.50
2022-09-16T23:18:05.474Z,10.50
2022-09-16T23:21:14.199Z,10.50
2022-09-16T23:24:21.112Z,10.50
2022-09-16T23:27:22.679Z,10.50
2022-09-16T23:30:24.372Z,10.50
2022-09-16T23:33:26.065Z,10.50
2022-09-16T23:36:28.496Z,10.50
2022-09-16T23:39:30.089Z,10.60
2022-09-16T23:42:31.746Z,10.50
2022-09-16T23:45:36.953Z,10.90
2022-09-16T23:48:38.793Z,10.60
2022-09-16T23:51:40.492Z,10.50
2022-09-16T23:54:42.151Z,10.50
2022-09-16T23:57:43.751Z,10.50
